sensor_id;sensor_type;location;lat;lon;timestamp;P1;P2;P0
46302;PMS7003;32029;51.358;5.628;2024-03-08T00:00:09;44.67;40.33;28.00
46302;PMS7003;32029;51.358;5.628;2024-03-08T00:02:39;43.33;37.67;25.67
46302;PMS7003;32029;51.358;5.628;2024-03-08T00:05:07;44.00;41.50;26.25
46302;PMS7003;32029;51.358;5.628;2024-03-08T00:07:39;48.33;41.33;27.00
46302;PMS7003;32029;51.358;5.628;2024-03-08T00:10:07;50.33;44.00;29.33
46302;PMS7003;32029;51.358;5.628;2024-03-08T00:12:43;49.67;42.67;25.67
46302;PMS7003;32029;51.358;5.628;2024-03-08T00:15:13;54.75;46.25;29.00
46302;PMS7003;32029;51.358;5.628;2024-03-08T00:17:42;52.50;40.50;27.00
46302;PMS7003;32029;51.358;5.628;2024-03-08T00:20:11;57.25;45.50;29.25
46302;PMS7003;32029;51.358;5.628;2024-03-08T00:22:39;52.00;43.33;28.00
46302;PMS7003;32029;51.358;5.628;2024-03-08T00:25:06;50.33;43.00;27.33
46302;PMS7003;32029;51.358;5.628;2024-03-08T00:27:38;47.67;42.00;28.00
46302;PMS7003;32029;51.358;5.628;2024-03-08T00:30:06;50.00;43.33;28.00
46302;PMS7003;32029;51.358;5.628;2024-03-08T00:32:34;48.33;43.33;28.67
46302;PMS7003;32029;51.358;5.628;2024-03-08T00:35:03;44.50;40.00;25.25
46302;PMS7003;32029;51.358;5.628;2024-03-08T00:37:32;42.33;36.33;24.67
46302;PMS7003;32029;51.358;5.628;2024-03-08T00:39:58;54.00;43.00;27.33
46302;PMS7003;32029;51.358;5.628;2024-03-08T00:42:26;55.75;47.00;29.50
46302;PMS7003;32029;51.358;5.628;2024-03-08T00:44:54;54.00;41.25;28.00
46302;PMS7003;32029;51.358;5.628;2024-03-08T00:47:22;51.25;40.50;26.00
46302;PMS7003;32029;51.358;5.628;2024-03-08T00:49:50;39.00;37.00;25.00
46302;PMS7003;32029;51.358;5.628;2024-03-08T00:52:18;51.67;44.67;29.00
46302;PMS7003;32029;51.358;5.628;2024-03-08T00:54:46;55.50;44.00;29.00
46302;PMS7003;32029;51.358;5.628;2024-03-08T00:57:14;38.67;35.67;20.33
46302;PMS7003;32029;51.358;5.628;2024-03-08T00:59:42;44.50;39.75;25.50
46302;PMS7003;32029;51.358;5.628;2024-03-08T01:02:09;52.50;41.75;27.50
46302;PMS7003;32029;51.358;5.628;2024-03-08T01:04:37;47.33;38.00;25.33
46302;PMS7003;32029;51.358;5.628;2024-03-08T01:07:04;47.00;42.67;27.67
46302;PMS7003;32029;51.358;5.628;2024-03-08T01:09:31;48.33;42.67;28.67
46302;PMS7003;32029;51.358;5.628;2024-03-08T01:11:59;43.33;40.00;25.67
46302;PMS7003;32029;51.358;5.628;2024-03-08T01:14:27;52.00;43.33;27.67
46302;PMS7003;32029;51.358;5.628;2024-03-08T01:16:56;47.00;39.33;26.00
46302;PMS7003;32029;51.358;5.628;2024-03-08T01:19:24;52.33;44.33;28.67
46302;PMS7003;32029;51.358;5.628;2024-03-08T01:21:52;57.50;45.25;28.75
46302;PMS7003;32029;51.358;5.628;2024-03-08T01:24:19;58.00;46.33;29.67
46302;PMS7003;32029;51.358;5.628;2024-03-08T01:26:46;59.33;45.33;28.00
46302;PMS7003;32029;51.358;5.628;2024-03-08T01:29:13;47.00;41.00;28.33
46302;PMS7003;32029;51.358;5.628;2024-03-08T01:31:40;53.33;43.00;28.00
46302;PMS7003;32029;51.358;5.628;2024-03-08T01:34:07;49.00;41.00;21.00
46302;PMS7003;32029;51.358;5.628;2024-03-08T01:36:35;52.00;41.00;27.33
46302;PMS7003;32029;51.358;5.628;2024-03-08T01:39:03;39.33;38.00;24.67
46302;PMS7003;32029;51.358;5.628;2024-03-08T01:41:36;51.00;43.67;27.67
46302;PMS7003;32029;51.358;5.628;2024-03-08T01:44:03;47.33;42.67;28.00
46302;PMS7003;32029;51.358;5.628;2024-03-08T01:46:30;46.67;41.67;27.33
46302;PMS7003;32029;51.358;5.628;2024-03-08T01:48:57;43.67;42.67;25.67
46302;PMS7003;32029;51.358;5.628;2024-03-08T01:51:28;46.50;39.50;26.50
46302;PMS7003;32029;51.358;5.628;2024-03-08T01:53:58;39.33;38.33;27.00
46302;PMS7003;32029;51.358;5.628;2024-03-08T01:56:28;50.00;43.00;27.00
46302;PMS7003;32029;51.358;5.628;2024-03-08T01:58:59;49.25;38.75;27.50
46302;PMS7003;32029;51.358;5.628;2024-03-08T02:01:28;43.67;42.00;25.33
46302;PMS7003;32029;51.358;5.628;2024-03-08T02:03:56;58.33;45.67;27.00
46302;PMS7003;32029;51.358;5.628;2024-03-08T02:06:24;44.33;42.00;27.67
46302;PMS7003;32029;51.358;5.628;2024-03-08T02:08:51;53.00;47.33;29.67
46302;PMS7003;32029;51.358;5.628;2024-03-08T02:11:18;40.00;36.67;25.33
46302;PMS7003;32029;51.358;5.628;2024-03-08T02:13:47;49.67;44.33;27.67
46302;PMS7003;32029;51.358;5.628;2024-03-08T02:16:19;49.33;42.67;27.00
46302;PMS7003;32029;51.358;5.628;2024-03-08T02:18:48;48.00;43.00;27.33
46302;PMS7003;32029;51.358;5.628;2024-03-08T02:21:17;40.67;36.00;21.33
46302;PMS7003;32029;51.358;5.628;2024-03-08T02:23:45;53.33;44.33;29.00
46302;PMS7003;32029;51.358;5.628;2024-03-08T02:26:14;47.67;42.00;27.00
46302;PMS7003;32029;51.358;5.628;2024-03-08T02:28:41;55.00;44.33;27.33
46302;PMS7003;32029;51.358;5.628;2024-03-08T02:31:11;39.67;39.67;24.67
46302;PMS7003;32029;51.358;5.628;2024-03-08T02:33:39;43.50;40.75;26.50
46302;PMS7003;32029;51.358;5.628;2024-03-08T02:36:07;51.50;41.75;27.00
46302;PMS7003;32029;51.358;5.628;2024-03-08T02:38:35;53.00;42.00;27.00
46302;PMS7003;32029;51.358;5.628;2024-03-08T02:41:02;52.00;44.00;27.33
46302;PMS7003;32029;51.358;5.628;2024-03-08T02:43:31;54.67;44.67;29.33
46302;PMS7003;32029;51.358;5.628;2024-03-08T02:45:59;51.33;46.33;29.33
46302;PMS7003;32029;51.358;5.628;2024-03-08T02:48:26;60.00;49.00;30.33
46302;PMS7003;32029;51.358;5.628;2024-03-08T02:50:53;54.33;45.00;27.00
46302;PMS7003;32029;51.358;5.628;2024-03-08T02:53:20;46.00;42.00;27.33
46302;PMS7003;32029;51.358;5.628;2024-03-08T02:55:48;43.50;40.75;27.00
46302;PMS7003;32029;51.358;5.628;2024-03-08T02:58:15;49.33;41.33;27.67
46302;PMS7003;32029;51.358;5.628;2024-03-08T03:00:42;46.33;41.00;27.00
46302;PMS7003;32029;51.358;5.628;2024-03-08T03:03:11;52.33;41.67;26.67
46302;PMS7003;32029;51.358;5.628;2024-03-08T03:05:39;38.33;38.33;26.00
46302;PMS7003;32029;51.358;5.628;2024-03-08T03:08:08;51.00;43.67;27.00
46302;PMS7003;32029;51.358;5.628;2024-03-08T03:10:36;52.67;40.67;27.00
46302;PMS7003;32029;51.358;5.628;2024-03-08T03:13:04;35.67;35.67;23.00
46302;PMS7003;32029;51.358;5.628;2024-03-08T03:15:32;41.33;37.67;27.33
46302;PMS7003;32029;51.358;5.628;2024-03-08T03:18:01;48.67;43.00;27.00
46302;PMS7003;32029;51.358;5.628;2024-03-08T03:20:29;59.50;47.00;27.00
46302;PMS7003;32029;51.358;5.628;2024-03-08T03:23:06;43.67;38.33;30.00
46302;PMS7003;32029;51.358;5.628;2024-03-08T03:25:35;54.67;43.67;27.67
46302;PMS7003;32029;51.358;5.628;2024-03-08T03:28:02;40.67;39.00;26.33
46302;PMS7003;32029;51.358;5.628;2024-03-08T03:30:29;50.00;44.67;27.00
46302;PMS7003;32029;51.358;5.628;2024-03-08T03:33:00;47.33;41.33;23.67
46302;PMS7003;32029;51.358;5.628;2024-03-08T03:35:28;53.00;44.00;28.00
46302;PMS7003;32029;51.358;5.628;2024-03-08T03:37:55;51.33;43.67;26.67
46302;PMS7003;32029;51.358;5.628;2024-03-08T03:40:33;53.00;45.33;30.00
46302;PMS7003;32029;51.358;5.628;2024-03-08T03:43:02;55.00;45.67;28.00
46302;PMS7003;32029;51.358;5.628;2024-03-08T03:45:29;48.00;41.67;28.33
46302;PMS7003;32029;51.358;5.628;2024-03-08T03:48:04;53.33;45.33;29.00
46302;PMS7003;32029;51.358;5.628;2024-03-08T03:50:39;50.33;45.33;28.67
46302;PMS7003;32029;51.358;5.628;2024-03-08T03:53:06;48.50;41.50;25.50
46302;PMS7003;32029;51.358;5.628;2024-03-08T03:55:34;50.33;45.67;29.00
46302;PMS7003;32029;51.358;5.628;2024-03-08T03:58:04;50.50;40.75;25.50
46302;PMS7003;32029;51.358;5.628;2024-03-08T04:00:32;43.67;39.00;26.00
46302;PMS7003;32029;51.358;5.628;2024-03-08T04:03:00;45.25;40.75;26.25
46302;PMS7003;32029;51.358;5.628;2024-03-08T04:05:28;36.00;32.67;25.33
46302;PMS7003;32029;51.358;5.628;2024-03-08T04:07:56;57.00;44.67;28.33
46302;PMS7003;32029;51.358;5.628;2024-03-08T04:10:23;50.00;43.67;29.00
46302;PMS7003;32029;51.358;5.628;2024-03-08T04:12:50;43.67;41.67;27.67
46302;PMS7003;32029;51.358;5.628;2024-03-08T04:15:18;48.75;41.00;24.00
46302;PMS7003;32029;51.358;5.628;2024-03-08T04:17:46;52.33;43.33;29.00
46302;PMS7003;32029;51.358;5.628;2024-03-08T04:20:13;41.00;40.33;24.33
46302;PMS7003;32029;51.358;5.628;2024-03-08T04:22:41;62.33;49.67;27.33
46302;PMS7003;32029;51.358;5.628;2024-03-08T04:25:11;61.00;45.00;29.00
46302;PMS7003;32029;51.358;5.628;2024-03-08T04:27:38;55.33;45.00;27.00
46302;PMS7003;32029;51.358;5.628;2024-03-08T04:30:05;45.00;41.67;29.00
46302;PMS7003;32029;51.358;5.628;2024-03-08T04:32:35;47.33;41.67;24.67
46302;PMS7003;32029;51.358;5.628;2024-03-08T04:35:03;57.67;45.33;27.00
46302;PMS7003;32029;51.358;5.628;2024-03-08T04:37:31;48.33;40.33;25.33
46302;PMS7003;32029;51.358;5.628;2024-03-08T04:39:58;37.67;31.67;18.33
46302;PMS7003;32029;51.358;5.628;2024-03-08T04:42:27;43.67;40.33;25.67
46302;PMS7003;32029;51.358;5.628;2024-03-08T04:44:56;48.67;44.00;28.00
46302;PMS7003;32029;51.358;5.628;2024-03-08T04:47:25;44.33;39.33;22.33
46302;PMS7003;32029;51.358;5.628;2024-03-08T04:49:52;55.33;45.67;27.67
46302;PMS7003;32029;51.358;5.628;2024-03-08T04:52:19;51.00;45.00;28.00
46302;PMS7003;32029;51.358;5.628;2024-03-08T04:54:46;48.33;43.67;27.67
46302;PMS7003;32029;51.358;5.628;2024-03-08T04:57:14;54.00;45.25;26.25
46302;PMS7003;32029;51.358;5.628;2024-03-08T04:59:41;50.67;45.00;27.67
46302;PMS7003;32029;51.358;5.628;2024-03-08T05:02:08;54.33;45.67;27.67
46302;PMS7003;32029;51.358;5.628;2024-03-08T05:04:35;51.67;46.00;27.67
46302;PMS7003;32029;51.358;5.628;2024-03-08T05:07:03;53.00;44.33;27.33
46302;PMS7003;32029;51.358;5.628;2024-03-08T05:09:30;57.33;45.00;28.33
46302;PMS7003;32029;51.358;5.628;2024-03-08T05:11:58;49.00;43.33;27.67
46302;PMS7003;32029;51.358;5.628;2024-03-08T05:14:26;52.67;46.00;29.67
46302;PMS7003;32029;51.358;5.628;2024-03-08T05:16:53;54.00;44.33;28.00
46302;PMS7003;32029;51.358;5.628;2024-03-08T05:19:20;56.00;45.00;29.00
46302;PMS7003;32029;51.358;5.628;2024-03-08T05:21:48;57.67;45.00;29.33
46302;PMS7003;32029;51.358;5.628;2024-03-08T05:24:17;62.00;46.75;28.75
46302;PMS7003;32029;51.358;5.628;2024-03-08T05:26:46;55.00;41.67;26.00
46302;PMS7003;32029;51.358;5.628;2024-03-08T05:29:14;61.33;48.67;29.33
46302;PMS7003;32029;51.358;5.628;2024-03-08T05:31:50;55.67;46.67;29.00
46302;PMS7003;32029;51.358;5.628;2024-03-08T05:34:21;56.33;48.00;31.00
46302;PMS7003;32029;51.358;5.628;2024-03-08T05:36:52;60.00;49.67;30.00
46302;PMS7003;32029;51.358;5.628;2024-03-08T05:39:25;46.00;36.67;17.33
46302;PMS7003;32029;51.358;5.628;2024-03-08T05:41:53;57.75;48.00;29.00
46302;PMS7003;32029;51.358;5.628;2024-03-08T05:44:22;61.75;46.50;30.75
46302;PMS7003;32029;51.358;5.628;2024-03-08T05:46:49;51.33;45.67;30.67
46302;PMS7003;32029;51.358;5.628;2024-03-08T05:49:18;60.75;47.00;31.00
46302;PMS7003;32029;51.358;5.628;2024-03-08T05:51:45;56.00;46.00;31.50
46302;PMS7003;32029;51.358;5.628;2024-03-08T05:54:14;52.00;46.00;31.67
46302;PMS7003;32029;51.358;5.628;2024-03-08T05:56:41;46.00;42.67;28.67
46302;PMS7003;32029;51.358;5.628;2024-03-08T05:59:11;61.67;46.00;29.67
46302;PMS7003;32029;51.358;5.628;2024-03-08T06:01:39;46.00;39.50;22.00
46302;PMS7003;32029;51.358;5.628;2024-03-08T06:04:07;58.67;46.33;30.67
46302;PMS7003;32029;51.358;5.628;2024-03-08T06:06:34;55.00;47.33;29.00
46302;PMS7003;32029;51.358;5.628;2024-03-08T06:09:04;55.33;45.67;29.33
46302;PMS7003;32029;51.358;5.628;2024-03-08T06:11:36;56.00;48.00;29.00
46302;PMS7003;32029;51.358;5.628;2024-03-08T06:14:04;61.67;50.00;31.33
46302;PMS7003;32029;51.358;5.628;2024-03-08T06:16:31;55.00;48.67;30.67
46302;PMS7003;32029;51.358;5.628;2024-03-08T06:19:01;47.33;43.00;26.67
46302;PMS7003;32029;51.358;5.628;2024-03-08T06:21:31;58.50;46.50;32.25
46302;PMS7003;32029;51.358;5.628;2024-03-08T06:23:58;58.67;48.33;31.00
46302;PMS7003;32029;51.358;5.628;2024-03-08T06:26:26;51.75;47.75;30.50
46302;PMS7003;32029;51.358;5.628;2024-03-08T06:28:57;57.00;45.50;28.00
46302;PMS7003;32029;51.358;5.628;2024-03-08T06:31:25;57.75;48.25;30.50
46302;PMS7003;32029;51.358;5.628;2024-03-08T06:33:52;58.33;49.33;31.67
46302;PMS7003;32029;51.358;5.628;2024-03-08T06:36:20;61.67;51.33;31.00
46302;PMS7003;32029;51.358;5.628;2024-03-08T06:38:50;50.67;41.67;28.67
46302;PMS7003;32029;51.358;5.628;2024-03-08T06:41:17;54.67;46.00;31.00
46302;PMS7003;32029;51.358;5.628;2024-03-08T06:43:46;47.75;41.75;26.00
46302;PMS7003;32029;51.358;5.628;2024-03-08T06:46:15;59.50;47.00;31.00
46302;PMS7003;32029;51.358;5.628;2024-03-08T06:48:42;61.33;49.00;30.67
46302;PMS7003;32029;51.358;5.628;2024-03-08T06:51:09;57.00;46.33;28.67
46302;PMS7003;32029;51.358;5.628;2024-03-08T06:53:38;45.33;42.00;26.00
46302;PMS7003;32029;51.358;5.628;2024-03-08T06:56:05;37.67;32.67;23.67
46302;PMS7003;32029;51.358;5.628;2024-03-08T06:58:34;58.33;46.33;28.67
46302;PMS7003;32029;51.358;5.628;2024-03-08T07:01:01;61.33;47.00;30.33
46302;PMS7003;32029;51.358;5.628;2024-03-08T07:03:30;49.00;43.67;29.67
46302;PMS7003;32029;51.358;5.628;2024-03-08T07:05:58;57.00;47.67;30.33
46302;PMS7003;32029;51.358;5.628;2024-03-08T07:08:26;57.33;49.00;30.33
46302;PMS7003;32029;51.358;5.628;2024-03-08T07:10:54;55.33;48.33;28.00
46302;PMS7003;32029;51.358;5.628;2024-03-08T07:13:21;57.50;45.00;29.25
46302;PMS7003;32029;51.358;5.628;2024-03-08T07:15:49;65.25;47.50;27.50
46302;PMS7003;32029;51.358;5.628;2024-03-08T07:18:18;54.50;46.75;30.00
46302;PMS7003;32029;51.358;5.628;2024-03-08T07:20:45;55.75;45.00;27.75
46302;PMS7003;32029;51.358;5.628;2024-03-08T07:23:12;53.33;40.33;20.00
46302;PMS7003;32029;51.358;5.628;2024-03-08T07:25:59;54.33;44.67;27.33
46302;PMS7003;32029;51.358;5.628;2024-03-08T07:28:28;48.33;43.67;29.33
46302;PMS7003;32029;51.358;5.628;2024-03-08T07:31:00;39.33;35.33;26.00
46302;PMS7003;32029;51.358;5.628;2024-03-08T07:33:38;61.67;50.33;29.00
46302;PMS7003;32029;51.358;5.628;2024-03-08T07:36:06;45.00;41.33;25.33
46302;PMS7003;32029;51.358;5.628;2024-03-08T07:38:33;55.33;44.67;30.00
46302;PMS7003;32029;51.358;5.628;2024-03-08T07:41:00;52.67;47.33;27.00
46302;PMS7003;32029;51.358;5.628;2024-03-08T07:43:27;49.67;44.00;25.67
46302;PMS7003;32029;51.358;5.628;2024-03-08T07:45:55;52.00;44.00;27.33
46302;PMS7003;32029;51.358;5.628;2024-03-08T07:48:23;45.67;42.67;27.00
46302;PMS7003;32029;51.358;5.628;2024-03-08T07:50:51;52.00;45.25;30.00
46302;PMS7003;32029;51.358;5.628;2024-03-08T07:53:18;51.33;43.00;28.67
46302;PMS7003;32029;51.358;5.628;2024-03-08T07:55:46;49.00;41.00;23.33
46302;PMS7003;32029;51.358;5.628;2024-03-08T07:58:14;47.33;43.00;27.00
46302;PMS7003;32029;51.358;5.628;2024-03-08T08:00:41;57.00;48.33;29.67
46302;PMS7003;32029;51.358;5.628;2024-03-08T08:03:10;50.25;45.00;28.25
46302;PMS7003;32029;51.358;5.628;2024-03-08T08:05:37;55.00;45.33;27.00
46302;PMS7003;32029;51.358;5.628;2024-03-08T08:08:07;53.67;43.33;28.00
46302;PMS7003;32029;51.358;5.628;2024-03-08T08:10:37;49.33;42.00;27.67
46302;PMS7003;32029;51.358;5.628;2024-03-08T08:13:04;52.00;43.67;28.67
46302;PMS7003;32029;51.358;5.628;2024-03-08T08:15:31;48.67;41.67;26.67
46302;PMS7003;32029;51.358;5.628;2024-03-08T08:18:02;58.75;41.50;24.75
46302;PMS7003;32029;51.358;5.628;2024-03-08T08:20:32;54.67;45.67;27.33
46302;PMS7003;32029;51.358;5.628;2024-03-08T08:23:00;48.33;44.00;26.33
46302;PMS7003;32029;51.358;5.628;2024-03-08T08:25:27;62.75;48.00;29.25
46302;PMS7003;32029;51.358;5.628;2024-03-08T08:27:55;39.33;35.00;19.33
46302;PMS7003;32029;51.358;5.628;2024-03-08T08:30:22;57.33;44.33;26.00
46302;PMS7003;32029;51.358;5.628;2024-03-08T08:32:50;52.50;42.75;25.75
46302;PMS7003;32029;51.358;5.628;2024-03-08T08:35:17;51.67;43.00;26.00
46302;PMS7003;32029;51.358;5.628;2024-03-08T08:37:46;48.67;43.00;26.33
46302;PMS7003;32029;51.358;5.628;2024-03-08T08:40:13;51.67;44.00;26.00
46302;PMS7003;32029;51.358;5.628;2024-03-08T08:42:44;54.00;42.00;27.00
46302;PMS7003;32029;51.358;5.628;2024-03-08T08:45:12;46.00;38.33;28.33
46302;PMS7003;32029;51.358;5.628;2024-03-08T08:47:40;43.50;38.25;25.00
46302;PMS7003;32029;51.358;5.628;2024-03-08T08:50:09;34.00;30.67;26.00
46302;PMS7003;32029;51.358;5.628;2024-03-08T08:52:39;50.00;43.00;28.00
46302;PMS7003;32029;51.358;5.628;2024-03-08T08:55:07;53.00;41.00;25.00
46302;PMS7003;32029;51.358;5.628;2024-03-08T08:57:34;47.67;41.00;25.67
46302;PMS7003;32029;51.358;5.628;2024-03-08T09:00:02;44.75;39.50;24.50
46302;PMS7003;32029;51.358;5.628;2024-03-08T09:02:42;44.25;39.00;24.75
46302;PMS7003;32029;51.358;5.628;2024-03-08T09:05:10;44.25;38.50;25.50
46302;PMS7003;32029;51.358;5.628;2024-03-08T09:07:44;47.00;40.50;27.50
46302;PMS7003;32029;51.358;5.628;2024-03-08T09:10:31;49.50;42.25;28.00
46302;PMS7003;32029;51.358;5.628;2024-03-08T09:13:00;54.00;44.33;25.67
46302;PMS7003;32029;51.358;5.628;2024-03-08T09:15:28;53.00;43.00;25.50
46302;PMS7003;32029;51.358;5.628;2024-03-08T09:17:55;46.00;41.00;26.33
46302;PMS7003;32029;51.358;5.628;2024-03-08T09:20:22;36.33;35.67;24.00
46302;PMS7003;32029;51.358;5.628;2024-03-08T09:22:50;31.33;31.00;16.00
46302;PMS7003;32029;51.358;5.628;2024-03-08T09:25:17;50.00;43.00;27.33
46302;PMS7003;32029;51.358;5.628;2024-03-08T09:27:44;49.67;41.67;25.00
46302;PMS7003;32029;51.358;5.628;2024-03-08T09:30:13;43.00;39.33;25.00
46302;PMS7003;32029;51.358;5.628;2024-03-08T09:32:41;34.33;30.67;21.67
46302;PMS7003;32029;51.358;5.628;2024-03-08T09:35:10;36.67;32.33;21.67
46302;PMS7003;32029;51.358;5.628;2024-03-08T09:37:37;42.67;39.00;25.33
46302;PMS7003;32029;51.358;5.628;2024-03-08T09:40:05;51.50;41.75;25.00
46302;PMS7003;32029;51.358;5.628;2024-03-08T09:42:35;47.33;40.67;25.00
46302;PMS7003;32029;51.358;5.628;2024-03-08T09:45:07;55.33;44.00;27.67
46302;PMS7003;32029;51.358;5.628;2024-03-08T09:47:42;44.67;39.33;23.67
46302;PMS7003;32029;51.358;5.628;2024-03-08T09:50:11;42.00;39.00;25.00
46302;PMS7003;32029;51.358;5.628;2024-03-08T09:52:42;42.00;37.33;25.00
46302;PMS7003;32029;51.358;5.628;2024-03-08T09:55:13;52.33;39.33;25.67
46302;PMS7003;32029;51.358;5.628;2024-03-08T09:57:41;39.75;37.25;25.00
46302;PMS7003;32029;51.358;5.628;2024-03-08T10:00:30;36.00;31.33;22.67
46302;PMS7003;32029;51.358;5.628;2024-03-08T10:03:00;45.00;38.67;23.67
46302;PMS7003;32029;51.358;5.628;2024-03-08T10:05:30;47.50;39.25;23.50
46302;PMS7003;32029;51.358;5.628;2024-03-08T10:07:59;41.33;37.00;24.33
46302;PMS7003;32029;51.358;5.628;2024-03-08T10:10:26;45.00;38.00;25.33
46302;PMS7003;32029;51.358;5.628;2024-03-08T10:12:55;39.50;33.25;21.75
46302;PMS7003;32029;51.358;5.628;2024-03-08T10:15:22;35.00;35.00;22.00
46302;PMS7003;32029;51.358;5.628;2024-03-08T10:17:52;40.25;33.75;22.00
46302;PMS7003;32029;51.358;5.628;2024-03-08T10:20:19;33.67;29.33;22.00
46302;PMS7003;32029;51.358;5.628;2024-03-08T10:22:48;31.00;26.33;14.00
46302;PMS7003;32029;51.358;5.628;2024-03-08T10:25:16;42.50;32.75;22.25
46302;PMS7003;32029;51.358;5.628;2024-03-08T10:27:51;37.00;34.00;20.25
46302;PMS7003;32029;51.358;5.628;2024-03-08T10:30:18;30.00;26.67;20.00
46302;PMS7003;32029;51.358;5.628;2024-03-08T10:32:47;36.25;29.00;19.25
46302;PMS7003;32029;51.358;5.628;2024-03-08T10:35:14;31.67;22.00;11.33
46302;PMS7003;32029;51.358;5.628;2024-03-08T10:40:34;37.25;32.50;21.75
46302;PMS7003;32029;51.358;5.628;2024-03-08T10:43:06;41.50;30.25;20.50
46302;PMS7003;32029;51.358;5.628;2024-03-08T10:45:44;28.33;25.33;19.00
46302;PMS7003;32029;51.358;5.628;2024-03-08T10:48:28;36.75;31.50;20.50
46302;PMS7003;32029;51.358;5.628;2024-03-08T10:50:59;31.67;28.33;18.67
46302;PMS7003;32029;51.358;5.628;2024-03-08T10:53:29;32.00;27.33;16.67
46302;PMS7003;32029;51.358;5.628;2024-03-08T10:55:57;24.67;22.00;15.67
46302;PMS7003;32029;51.358;5.628;2024-03-08T10:58:25;32.67;29.33;20.33
46302;PMS7003;32029;51.358;5.628;2024-03-08T11:00:54;33.25;28.00;18.50
46302;PMS7003;32029;51.358;5.628;2024-03-08T11:06:18;31.67;27.33;18.33
46302;PMS7003;32029;51.358;5.628;2024-03-08T11:08:57;29.67;24.00;17.00
46302;PMS7003;32029;51.358;5.628;2024-03-08T11:11:30;31.67;28.00;18.67
46302;PMS7003;32029;51.358;5.628;2024-03-08T11:13:58;29.33;25.67;17.67
46302;PMS7003;32029;51.358;5.628;2024-03-08T11:18:53;32.00;26.67;15.67
46302;PMS7003;32029;51.358;5.628;2024-03-08T11:21:22;36.00;31.67;19.00
46302;PMS7003;32029;51.358;5.628;2024-03-08T11:24:02;24.67;23.33;17.33
46302;PMS7003;32029;51.358;5.628;2024-03-08T11:26:33;32.33;28.33;19.00
46302;PMS7003;32029;51.358;5.628;2024-03-08T11:32:14;25.33;25.00;17.33
46302;PMS7003;32029;51.358;5.628;2024-03-08T11:34:48;25.33;23.67;15.00
46302;PMS7003;32029;51.358;5.628;2024-03-08T11:37:20;21.33;18.33;14.67
46302;PMS7003;32029;51.358;5.628;2024-03-08T11:39:48;29.67;28.33;18.00
46302;PMS7003;32029;51.358;5.628;2024-03-08T11:42:16;28.67;27.00;18.67
46302;PMS7003;32029;51.358;5.628;2024-03-08T11:44:48;23.00;23.00;17.00
46302;PMS7003;32029;51.358;5.628;2024-03-08T11:47:18;26.00;23.33;17.33
46302;PMS7003;32029;51.358;5.628;2024-03-08T11:49:48;28.33;25.67;17.00
46302;PMS7003;32029;51.358;5.628;2024-03-08T11:52:16;30.00;26.75;18.50
46302;PMS7003;32029;51.358;5.628;2024-03-08T11:54:54;23.67;22.67;16.33
46302;PMS7003;32029;51.358;5.628;2024-03-08T11:57:23;28.33;24.00;16.33
46302;PMS7003;32029;51.358;5.628;2024-03-08T11:59:53;32.00;26.00;17.25
46302;PMS7003;32029;51.358;5.628;2024-03-08T12:02:23;25.00;24.00;18.00
46302;PMS7003;32029;51.358;5.628;2024-03-08T12:04:56;34.00;30.33;21.00
46302;PMS7003;32029;51.358;5.628;2024-03-08T12:07:26;32.00;27.00;15.67
46302;PMS7003;32029;51.358;5.628;2024-03-08T12:12:45;33.00;29.50;19.25
46302;PMS7003;32029;51.358;5.628;2024-03-08T12:15:17;25.33;19.00;14.67
46302;PMS7003;32029;51.358;5.628;2024-03-08T12:17:49;23.33;20.00;14.00
46302;PMS7003;32029;51.358;5.628;2024-03-08T12:20:21;28.00;25.33;17.00
46302;PMS7003;32029;51.358;5.628;2024-03-08T12:22:50;30.33;28.00;18.33
46302;PMS7003;32029;51.358;5.628;2024-03-08T12:25:29;23.67;23.00;15.67
46302;PMS7003;32029;51.358;5.628;2024-03-08T12:28:07;28.00;25.75;17.50
46302;PMS7003;32029;51.358;5.628;2024-03-08T12:30:44;23.67;23.00;16.00
46302;PMS7003;32029;51.358;5.628;2024-03-08T12:33:15;23.00;23.00;17.67
46302;PMS7003;32029;51.358;5.628;2024-03-08T12:35:50;28.33;24.67;18.67
46302;PMS7003;32029;51.358;5.628;2024-03-08T12:38:20;22.00;20.67;16.00
46302;PMS7003;32029;51.358;5.628;2024-03-08T12:40:55;25.00;23.33;17.00
46302;PMS7003;32029;51.358;5.628;2024-03-08T12:43:25;32.00;27.00;19.25
46302;PMS7003;32029;51.358;5.628;2024-03-08T12:45:52;25.00;23.33;17.00
46302;PMS7003;32029;51.358;5.628;2024-03-08T12:48:19;21.33;21.00;13.67
46302;PMS7003;32029;51.358;5.628;2024-03-08T12:50:47;25.67;24.33;16.67
46302;PMS7003;32029;51.358;5.628;2024-03-08T12:53:14;26.33;24.33;17.33
46302;PMS7003;32029;51.358;5.628;2024-03-08T12:55:43;27.25;24.75;19.25
46302;PMS7003;32029;51.358;5.628;2024-03-08T12:58:10;25.67;22.33;14.33
46302;PMS7003;32029;51.358;5.628;2024-03-08T13:00:37;22.67;21.00;14.33
46302;PMS7003;32029;51.358;5.628;2024-03-08T13:03:09;21.67;21.67;14.67
46302;PMS7003;32029;51.358;5.628;2024-03-08T13:05:37;26.33;22.00;15.00
46302;PMS7003;32029;51.358;5.628;2024-03-08T13:08:07;27.75;23.50;16.75
46302;PMS7003;32029;51.358;5.628;2024-03-08T13:10:39;24.33;22.33;15.00
46302;PMS7003;32029;51.358;5.628;2024-03-08T13:13:06;25.00;23.67;16.67
46302;PMS7003;32029;51.358;5.628;2024-03-08T13:15:36;24.00;23.00;13.00
46302;PMS7003;32029;51.358;5.628;2024-03-08T13:18:03;22.33;21.33;15.00
46302;PMS7003;32029;51.358;5.628;2024-03-08T13:20:32;20.67;20.67;15.00
46302;PMS7003;32029;51.358;5.628;2024-03-08T13:22:59;20.67;17.00;12.00
46302;PMS7003;32029;51.358;5.628;2024-03-08T13:25:28;22.33;18.67;13.00
46302;PMS7003;32029;51.358;5.628;2024-03-08T13:27:55;21.67;19.00;12.00
46302;PMS7003;32029;51.358;5.628;2024-03-08T13:30:23;21.67;20.67;14.33
46302;PMS7003;32029;51.358;5.628;2024-03-08T13:32:53;18.33;17.67;14.00
46302;PMS7003;32029;51.358;5.628;2024-03-08T13:35:21;19.33;19.33;14.00
46302;PMS7003;32029;51.358;5.628;2024-03-08T13:37:53;23.67;19.33;14.00
46302;PMS7003;32029;51.358;5.628;2024-03-08T13:40:21;21.67;18.00;12.00
46302;PMS7003;32029;51.358;5.628;2024-03-08T13:42:48;20.00;17.00;13.67
46302;PMS7003;32029;51.358;5.628;2024-03-08T13:45:16;21.00;18.00;13.33
46302;PMS7003;32029;51.358;5.628;2024-03-08T13:47:51;24.67;18.67;13.00
46302;PMS7003;32029;51.358;5.628;2024-03-08T13:50:18;20.33;19.33;13.33
46302;PMS7003;32029;51.358;5.628;2024-03-08T13:52:48;7.67;4.33;4.00
46302;PMS7003;32029;51.358;5.628;2024-03-08T13:55:18;22.00;20.00;13.00
46302;PMS7003;32029;51.358;5.628;2024-03-08T13:57:48;19.33;17.00;12.00
46302;PMS7003;32029;51.358;5.628;2024-03-08T14:00:16;22.33;19.67;15.00
46302;PMS7003;32029;51.358;5.628;2024-03-08T14:02:43;20.67;15.00;12.00
46302;PMS7003;32029;51.358;5.628;2024-03-08T14:05:11;25.00;21.67;14.67
46302;PMS7003;32029;51.358;5.628;2024-03-08T14:07:40;18.33;17.67;13.67
46302;PMS7003;32029;51.358;5.628;2024-03-08T14:10:08;23.33;21.67;17.33